Du har inga inställningar för hoppväder.nu

Hoppväder.nu

Senast uppdaterat 04:04

UTC-tid

2021-03-01 kl. 03:04


Sol och måne

Solen går upp 6:56 och går ner 17:36 (beräknade cirkatider)
Nästa fullmåne blir om 27 dagar (2021-03-28)

METAR

ESMK (Everöd)
(14 minuter sedan)
ESMK 010250Z AUTO VRB01KT 0200 R01/0900N R19/0700N // NCD M03/M03 Q1032=



ESMS (Malmö)
(14 minuter sedan)
ESMS 010250Z 24004KT 0150 R17/0750N R35/0600N FZFG VV001 M00/M00 Q1033=



ESMX (Växjö)
(14 minuter sedan)
ESMX 010250Z AUTO 23003KT 0250 R01/P2000N R19/0800N FZFG BKN002/// M01/M01 Q1030=



ESDF (Ronneby)
(14 minuter sedan)
ESDF 010250Z AUTO 31001KT 9999 NCD M02/M03 Q1031=



EKRN (Rønne, Bornholm)
(44 minuter sedan)
EKRN 010220Z AUTO 29004KT 3300 BR OVC003/// 03/03 Q1033=



TAF

ESMK (Everöd)
ESMK



ESMS (Malmö)
(159 minuter sedan)
ESMS AMD 010025Z 0100/0124 23005KT 3000 BR SCT005 TEMPO 0100/0107 0100 FZFG VV001 BECMG 0107/0109 8000 NSW BKN008 TEMPO 0111/0118 BKN012 TEMPO 0118/0124 2500 BR SCT012=



ESMX (Växjö)
ESMX



ESDF (Ronneby)
ESDF



EKRN (Rønne, Bornholm)
EKRN





Kodnycklar till TAF och METAR






LHP

(Everöd är område se11e i Hela Område 1)

Prognos är inte uppdaterad






Preliminär prognos